sensor_id;sensor_type;location;lat;lon;timestamp;P1;durP1;ratioP1;P2;durP2;ratioP2
2023;SDS011;1016;48.770;9.154;2023-05-21T00:01:18;31.47;;;15.10;;
2023;SDS011;1016;48.770;9.154;2023-05-21T00:03:43;32.20;;;15.50;;
2023;SDS011;1016;48.770;9.154;2023-05-21T00:06:13;34.40;;;16.00;;
2023;SDS011;1016;48.770;9.154;2023-05-21T00:08:39;30.30;;;14.27;;
2023;SDS011;1016;48.770;9.154;2023-05-21T00:11:05;31.80;;;15.90;;
2023;SDS011;1016;48.770;9.154;2023-05-21T00:13:30;32.40;;;16.03;;
2023;SDS011;1016;48.770;9.154;2023-05-21T00:15:56;31.87;;;15.23;;
2023;SDS011;1016;48.770;9.154;2023-05-21T00:18:21;32.27;;;15.13;;
2023;SDS011;1016;48.770;9.154;2023-05-21T00:20:49;32.13;;;15.73;;
2023;SDS011;1016;48.770;9.154;2023-05-21T00:23:14;31.40;;;15.47;;
2023;SDS011;1016;48.770;9.154;2023-05-21T00:25:42;31.50;;;15.30;;
2023;SDS011;1016;48.770;9.154;2023-05-21T00:28:08;31.73;;;16.03;;
2023;SDS011;1016;48.770;9.154;2023-05-21T00:30:34;33.30;;;16.47;;
2023;SDS011;1016;48.770;9.154;2023-05-21T00:32:59;31.33;;;14.90;;
2023;SDS011;1016;48.770;9.154;2023-05-21T00:35:26;33.17;;;16.30;;
2023;SDS011;1016;48.770;9.154;2023-05-21T00:37:53;31.67;;;15.57;;
2023;SDS011;1016;48.770;9.154;2023-05-21T00:40:18;32.33;;;15.60;;
2023;SDS011;1016;48.770;9.154;2023-05-21T00:42:44;31.67;;;16.13;;
2023;SDS011;1016;48.770;9.154;2023-05-21T00:45:12;32.93;;;15.50;;
2023;SDS011;1016;48.770;9.154;2023-05-21T00:47:39;34.43;;;16.40;;
2023;SDS011;1016;48.770;9.154;2023-05-21T00:50:05;31.83;;;15.77;;
2023;SDS011;1016;48.770;9.154;2023-05-21T00:52:32;34.20;;;17.03;;
2023;SDS011;1016;48.770;9.154;2023-05-21T00:55:05;34.50;;;16.40;;
2023;SDS011;1016;48.770;9.154;2023-05-21T00:57:31;33.77;;;16.73;;
2023;SDS011;1016;48.770;9.154;2023-05-21T00:59:58;32.40;;;16.43;;
2023;SDS011;1016;48.770;9.154;2023-05-21T01:02:23;32.40;;;16.80;;
2023;SDS011;1016;48.770;9.154;2023-05-21T01:04:50;31.50;;;16.40;;
2023;SDS011;1016;48.770;9.154;2023-05-21T01:07:18;34.93;;;17.00;;
2023;SDS011;1016;48.770;9.154;2023-05-21T01:09:43;32.20;;;16.57;;
2023;SDS011;1016;48.770;9.154;2023-05-21T01:12:09;32.97;;;17.20;;
2023;SDS011;1016;48.770;9.154;2023-05-21T01:14:36;32.50;;;17.13;;
2023;SDS011;1016;48.770;9.154;2023-05-21T01:17:03;32.90;;;17.20;;
2023;SDS011;1016;48.770;9.154;2023-05-21T01:19:30;34.53;;;16.87;;
2023;SDS011;1016;48.770;9.154;2023-05-21T01:21:59;38.10;;;17.53;;
2023;SDS011;1016;48.770;9.154;2023-05-21T01:24:28;32.93;;;16.60;;
2023;SDS011;1016;48.770;9.154;2023-05-21T01:26:54;33.90;;;17.97;;
2023;SDS011;1016;48.770;9.154;2023-05-21T01:29:19;33.17;;;17.17;;
2023;SDS011;1016;48.770;9.154;2023-05-21T01:34:29;32.83;;;16.63;;
2023;SDS011;1016;48.770;9.154;2023-05-21T01:37:07;33.00;;;17.80;;
2023;SDS011;1016;48.770;9.154;2023-05-21T01:39:38;33.33;;;17.07;;
2023;SDS011;1016;48.770;9.154;2023-05-21T01:42:09;33.43;;;17.43;;
2023;SDS011;1016;48.770;9.154;2023-05-21T01:44:36;34.10;;;17.70;;
2023;SDS011;1016;48.770;9.154;2023-05-21T01:47:02;33.10;;;18.07;;
2023;SDS011;1016;48.770;9.154;2023-05-21T01:49:29;33.83;;;16.90;;
2023;SDS011;1016;48.770;9.154;2023-05-21T01:51:55;34.37;;;18.20;;
2023;SDS011;1016;48.770;9.154;2023-05-21T01:54:21;35.30;;;17.60;;
2023;SDS011;1016;48.770;9.154;2023-05-21T01:56:48;33.00;;;17.03;;
2023;SDS011;1016;48.770;9.154;2023-05-21T01:59:14;32.83;;;17.27;;
2023;SDS011;1016;48.770;9.154;2023-05-21T02:01:41;33.40;;;17.60;;
2023;SDS011;1016;48.770;9.154;2023-05-21T02:04:06;33.30;;;17.23;;
2023;SDS011;1016;48.770;9.154;2023-05-21T02:06:32;37.00;;;17.77;;
2023;SDS011;1016;48.770;9.154;2023-05-21T02:08:59;35.10;;;17.80;;
2023;SDS011;1016;48.770;9.154;2023-05-21T02:11:26;40.83;;;18.40;;
2023;SDS011;1016;48.770;9.154;2023-05-21T02:13:52;35.83;;;17.90;;
2023;SDS011;1016;48.770;9.154;2023-05-21T02:16:18;34.93;;;18.20;;
2023;SDS011;1016;48.770;9.154;2023-05-21T02:18:46;32.63;;;17.20;;
2023;SDS011;1016;48.770;9.154;2023-05-21T02:21:15;35.73;;;18.90;;
2023;SDS011;1016;48.770;9.154;2023-05-21T02:23:41;35.77;;;18.60;;
2023;SDS011;1016;48.770;9.154;2023-05-21T02:26:06;34.80;;;18.60;;
2023;SDS011;1016;48.770;9.154;2023-05-21T02:28:32;36.83;;;18.73;;
2023;SDS011;1016;48.770;9.154;2023-05-21T02:30:58;38.70;;;18.97;;
2023;SDS011;1016;48.770;9.154;2023-05-21T02:33:24;37.23;;;19.40;;
2023;SDS011;1016;48.770;9.154;2023-05-21T02:35:50;35.20;;;19.20;;
2023;SDS011;1016;48.770;9.154;2023-05-21T02:38:15;35.60;;;18.83;;
2023;SDS011;1016;48.770;9.154;2023-05-21T02:40:44;34.70;;;18.03;;
2023;SDS011;1016;48.770;9.154;2023-05-21T02:43:10;35.17;;;18.80;;
2023;SDS011;1016;48.770;9.154;2023-05-21T02:45:35;33.90;;;16.80;;
2023;SDS011;1016;48.770;9.154;2023-05-21T02:48:01;36.33;;;19.60;;
2023;SDS011;1016;48.770;9.154;2023-05-21T02:50:26;37.17;;;19.47;;
2023;SDS011;1016;48.770;9.154;2023-05-21T02:52:52;35.10;;;18.20;;
2023;SDS011;1016;48.770;9.154;2023-05-21T02:55:17;35.13;;;19.27;;
2023;SDS011;1016;48.770;9.154;2023-05-21T02:57:43;34.87;;;18.90;;
2023;SDS011;1016;48.770;9.154;2023-05-21T03:00:08;35.97;;;18.77;;
2023;SDS011;1016;48.770;9.154;2023-05-21T03:02:35;34.10;;;17.77;;
2023;SDS011;1016;48.770;9.154;2023-05-21T03:05:01;37.53;;;19.00;;
2023;SDS011;1016;48.770;9.154;2023-05-21T03:07:26;33.93;;;18.27;;
2023;SDS011;1016;48.770;9.154;2023-05-21T03:09:52;37.50;;;19.80;;
2023;SDS011;1016;48.770;9.154;2023-05-21T03:12:17;34.80;;;18.30;;
2023;SDS011;1016;48.770;9.154;2023-05-21T03:14:43;34.90;;;18.70;;
2023;SDS011;1016;48.770;9.154;2023-05-21T03:17:10;38.33;;;20.13;;
2023;SDS011;1016;48.770;9.154;2023-05-21T03:19:37;35.70;;;19.30;;
2023;SDS011;1016;48.770;9.154;2023-05-21T03:22:04;34.53;;;18.60;;
2023;SDS011;1016;48.770;9.154;2023-05-21T03:24:30;33.80;;;17.80;;
2023;SDS011;1016;48.770;9.154;2023-05-21T03:26:57;35.40;;;18.77;;
2023;SDS011;1016;48.770;9.154;2023-05-21T03:29:23;36.17;;;18.30;;
2023;SDS011;1016;48.770;9.154;2023-05-21T03:31:50;36.83;;;18.73;;
2023;SDS011;1016;48.770;9.154;2023-05-21T03:34:16;34.63;;;19.00;;
2023;SDS011;1016;48.770;9.154;2023-05-21T03:36:44;36.10;;;18.50;;
2023;SDS011;1016;48.770;9.154;2023-05-21T03:39:10;36.80;;;19.40;;
2023;SDS011;1016;48.770;9.154;2023-05-21T03:41:35;34.43;;;18.20;;
2023;SDS011;1016;48.770;9.154;2023-05-21T03:44:01;34.63;;;18.20;;
2023;SDS011;1016;48.770;9.154;2023-05-21T03:46:26;35.60;;;19.10;;
2023;SDS011;1016;48.770;9.154;2023-05-21T03:48:52;36.40;;;20.40;;
2023;SDS011;1016;48.770;9.154;2023-05-21T03:51:18;34.07;;;17.87;;
2023;SDS011;1016;48.770;9.154;2023-05-21T03:53:44;35.43;;;19.63;;
2023;SDS011;1016;48.770;9.154;2023-05-21T03:56:09;34.30;;;18.30;;
2023;SDS011;1016;48.770;9.154;2023-05-21T03:58:35;35.57;;;18.83;;
2023;SDS011;1016;48.770;9.154;2023-05-21T04:01:01;35.07;;;19.30;;
2023;SDS011;1016;48.770;9.154;2023-05-21T04:03:28;33.87;;;18.33;;
2023;SDS011;1016;48.770;9.154;2023-05-21T04:05:54;35.87;;;18.97;;
2023;SDS011;1016;48.770;9.154;2023-05-21T04:08:20;35.63;;;18.90;;
2023;SDS011;1016;48.770;9.154;2023-05-21T04:10:45;36.60;;;19.90;;
2023;SDS011;1016;48.770;9.154;2023-05-21T04:13:11;36.07;;;19.10;;
2023;SDS011;1016;48.770;9.154;2023-05-21T04:15:37;35.27;;;19.47;;
2023;SDS011;1016;48.770;9.154;2023-05-21T04:18:02;35.40;;;18.97;;
2023;SDS011;1016;48.770;9.154;2023-05-21T04:20:28;35.47;;;19.00;;
2023;SDS011;1016;48.770;9.154;2023-05-21T04:22:54;36.50;;;19.37;;
2023;SDS011;1016;48.770;9.154;2023-05-21T04:25:20;38.87;;;20.60;;
2023;SDS011;1016;48.770;9.154;2023-05-21T04:27:47;35.30;;;18.80;;
2023;SDS011;1016;48.770;9.154;2023-05-21T04:30:13;35.87;;;18.90;;
2023;SDS011;1016;48.770;9.154;2023-05-21T04:32:39;36.60;;;20.13;;
2023;SDS011;1016;48.770;9.154;2023-05-21T04:35:05;36.27;;;17.90;;
2023;SDS011;1016;48.770;9.154;2023-05-21T04:37:32;33.70;;;18.50;;
2023;SDS011;1016;48.770;9.154;2023-05-21T04:39:59;34.80;;;19.53;;
2023;SDS011;1016;48.770;9.154;2023-05-21T04:42:25;35.03;;;19.40;;
2023;SDS011;1016;48.770;9.154;2023-05-21T04:44:51;37.23;;;19.33;;
2023;SDS011;1016;48.770;9.154;2023-05-21T04:47:19;36.13;;;19.83;;
2023;SDS011;1016;48.770;9.154;2023-05-21T04:49:45;35.90;;;19.40;;
2023;SDS011;1016;48.770;9.154;2023-05-21T04:52:11;35.43;;;19.33;;
2023;SDS011;1016;48.770;9.154;2023-05-21T04:54:36;34.53;;;18.63;;
2023;SDS011;1016;48.770;9.154;2023-05-21T04:57:03;34.83;;;19.37;;
2023;SDS011;1016;48.770;9.154;2023-05-21T04:59:29;36.77;;;19.67;;
2023;SDS011;1016;48.770;9.154;2023-05-21T05:01:54;35.00;;;19.00;;
2023;SDS011;1016;48.770;9.154;2023-05-21T05:04:20;36.20;;;19.40;;
2023;SDS011;1016;48.770;9.154;2023-05-21T05:06:45;35.80;;;19.37;;
2023;SDS011;1016;48.770;9.154;2023-05-21T05:09:11;34.40;;;19.10;;
2023;SDS011;1016;48.770;9.154;2023-05-21T05:11:36;36.00;;;18.93;;
2023;SDS011;1016;48.770;9.154;2023-05-21T05:14:02;34.30;;;18.80;;
2023;SDS011;1016;48.770;9.154;2023-05-21T05:16:27;34.47;;;18.30;;
2023;SDS011;1016;48.770;9.154;2023-05-21T05:18:53;36.30;;;18.40;;
2023;SDS011;1016;48.770;9.154;2023-05-21T05:21:20;35.80;;;19.10;;
2023;SDS011;1016;48.770;9.154;2023-05-21T05:23:46;39.20;;;20.10;;
2023;SDS011;1016;48.770;9.154;2023-05-21T05:26:11;35.27;;;19.57;;
2023;SDS011;1016;48.770;9.154;2023-05-21T05:28:37;34.90;;;19.00;;
2023;SDS011;1016;48.770;9.154;2023-05-21T05:31:02;36.10;;;19.63;;
2023;SDS011;1016;48.770;9.154;2023-05-21T05:33:28;35.33;;;19.07;;
2023;SDS011;1016;48.770;9.154;2023-05-21T05:35:53;39.00;;;19.80;;
2023;SDS011;1016;48.770;9.154;2023-05-21T05:38:19;35.20;;;18.60;;
2023;SDS011;1016;48.770;9.154;2023-05-21T05:40:45;35.70;;;18.83;;
2023;SDS011;1016;48.770;9.154;2023-05-21T05:43:10;37.33;;;18.70;;
2023;SDS011;1016;48.770;9.154;2023-05-21T05:45:36;34.33;;;18.90;;
2023;SDS011;1016;48.770;9.154;2023-05-21T05:48:01;35.70;;;19.47;;
2023;SDS011;1016;48.770;9.154;2023-05-21T05:50:27;35.20;;;18.40;;
2023;SDS011;1016;48.770;9.154;2023-05-21T05:52:52;36.00;;;18.93;;
2023;SDS011;1016;48.770;9.154;2023-05-21T05:55:18;35.10;;;18.57;;
2023;SDS011;1016;48.770;9.154;2023-05-21T05:57:43;35.20;;;18.47;;
2023;SDS011;1016;48.770;9.154;2023-05-21T06:00:09;35.57;;;18.60;;
2023;SDS011;1016;48.770;9.154;2023-05-21T06:02:35;36.00;;;18.33;;
2023;SDS011;1016;48.770;9.154;2023-05-21T06:05:01;35.03;;;18.70;;
2023;SDS011;1016;48.770;9.154;2023-05-21T06:07:27;39.70;;;19.77;;
2023;SDS011;1016;48.770;9.154;2023-05-21T06:09:53;34.57;;;19.23;;
2023;SDS011;1016;48.770;9.154;2023-05-21T06:12:19;35.40;;;19.17;;
2023;SDS011;1016;48.770;9.154;2023-05-21T06:14:44;34.77;;;19.23;;
2023;SDS011;1016;48.770;9.154;2023-05-21T06:17:11;35.13;;;18.07;;
2023;SDS011;1016;48.770;9.154;2023-05-21T06:19:36;36.30;;;19.07;;
2023;SDS011;1016;48.770;9.154;2023-05-21T06:22:03;33.50;;;18.20;;
2023;SDS011;1016;48.770;9.154;2023-05-21T06:24:29;33.63;;;18.83;;
2023;SDS011;1016;48.770;9.154;2023-05-21T06:26:54;35.40;;;18.00;;
2023;SDS011;1016;48.770;9.154;2023-05-21T06:29:20;34.77;;;18.30;;
2023;SDS011;1016;48.770;9.154;2023-05-21T06:31:46;34.70;;;18.50;;
2023;SDS011;1016;48.770;9.154;2023-05-21T06:34:12;38.20;;;18.43;;
2023;SDS011;1016;48.770;9.154;2023-05-21T06:36:38;35.47;;;19.37;;
2023;SDS011;1016;48.770;9.154;2023-05-21T06:39:03;34.67;;;18.70;;
2023;SDS011;1016;48.770;9.154;2023-05-21T06:41:29;34.70;;;18.40;;
2023;SDS011;1016;48.770;9.154;2023-05-21T06:43:54;35.10;;;18.93;;
2023;SDS011;1016;48.770;9.154;2023-05-21T06:46:20;38.63;;;18.40;;
2023;SDS011;1016;48.770;9.154;2023-05-21T06:48:46;35.70;;;18.37;;
2023;SDS011;1016;48.770;9.154;2023-05-21T06:51:11;36.07;;;18.27;;
2023;SDS011;1016;48.770;9.154;2023-05-21T06:53:37;36.00;;;18.10;;
2023;SDS011;1016;48.770;9.154;2023-05-21T06:56:02;33.30;;;17.40;;
2023;SDS011;1016;48.770;9.154;2023-05-21T06:58:28;33.27;;;17.80;;
2023;SDS011;1016;48.770;9.154;2023-05-21T07:00:58;34.43;;;17.90;;
2023;SDS011;1016;48.770;9.154;2023-05-21T07:03:24;35.00;;;17.60;;
2023;SDS011;1016;48.770;9.154;2023-05-21T07:05:51;33.10;;;17.40;;
2023;SDS011;1016;48.770;9.154;2023-05-21T07:08:17;32.53;;;16.83;;
2023;SDS011;1016;48.770;9.154;2023-05-21T07:10:43;32.00;;;15.80;;
2023;SDS011;1016;48.770;9.154;2023-05-21T07:13:10;33.90;;;17.63;;
2023;SDS011;1016;48.770;9.154;2023-05-21T07:15:35;33.27;;;17.00;;
2023;SDS011;1016;48.770;9.154;2023-05-21T07:18:01;37.87;;;17.10;;
2023;SDS011;1016;48.770;9.154;2023-05-21T07:20:27;33.50;;;17.10;;
2023;SDS011;1016;48.770;9.154;2023-05-21T07:22:53;33.27;;;16.63;;
2023;SDS011;1016;48.770;9.154;2023-05-21T07:25:18;32.80;;;15.67;;
2023;SDS011;1016;48.770;9.154;2023-05-21T07:27:44;31.40;;;15.97;;
2023;SDS011;1016;48.770;9.154;2023-05-21T07:30:10;31.80;;;16.03;;
2023;SDS011;1016;48.770;9.154;2023-05-21T07:32:35;33.47;;;16.27;;
2023;SDS011;1016;48.770;9.154;2023-05-21T07:35:01;33.00;;;16.13;;
2023;SDS011;1016;48.770;9.154;2023-05-21T07:37:27;32.73;;;16.07;;
2023;SDS011;1016;48.770;9.154;2023-05-21T07:39:56;31.60;;;16.10;;
2023;SDS011;1016;48.770;9.154;2023-05-21T07:42:25;30.83;;;14.90;;
2023;SDS011;1016;48.770;9.154;2023-05-21T07:44:51;31.47;;;15.63;;
2023;SDS011;1016;48.770;9.154;2023-05-21T07:47:16;33.80;;;15.77;;
2023;SDS011;1016;48.770;9.154;2023-05-21T07:49:42;31.23;;;15.40;;
2023;SDS011;1016;48.770;9.154;2023-05-21T07:52:07;32.87;;;15.90;;
2023;SDS011;1016;48.770;9.154;2023-05-21T07:54:33;32.37;;;16.10;;
2023;SDS011;1016;48.770;9.154;2023-05-21T07:56:59;31.60;;;14.70;;
2023;SDS011;1016;48.770;9.154;2023-05-21T07:59:26;35.00;;;16.67;;
2023;SDS011;1016;48.770;9.154;2023-05-21T08:01:52;33.47;;;15.20;;
2023;SDS011;1016;48.770;9.154;2023-05-21T08:04:18;31.13;;;15.60;;
2023;SDS011;1016;48.770;9.154;2023-05-21T08:06:43;31.63;;;15.47;;
2023;SDS011;1016;48.770;9.154;2023-05-21T08:09:09;31.10;;;14.83;;
2023;SDS011;1016;48.770;9.154;2023-05-21T08:11:36;32.10;;;14.20;;
2023;SDS011;1016;48.770;9.154;2023-05-21T08:14:01;31.60;;;13.73;;
2023;SDS011;1016;48.770;9.154;2023-05-21T08:16:27;30.20;;;14.07;;
2023;SDS011;1016;48.770;9.154;2023-05-21T08:18:52;32.90;;;14.03;;
2023;SDS011;1016;48.770;9.154;2023-05-21T08:21:18;30.83;;;14.90;;
2023;SDS011;1016;48.770;9.154;2023-05-21T08:23:43;32.03;;;15.27;;
2023;SDS011;1016;48.770;9.154;2023-05-21T08:26:09;30.90;;;14.90;;
2023;SDS011;1016;48.770;9.154;2023-05-21T08:28:36;31.53;;;14.73;;
2023;SDS011;1016;48.770;9.154;2023-05-21T08:31:02;31.53;;;15.23;;
2023;SDS011;1016;48.770;9.154;2023-05-21T08:33:28;32.33;;;15.20;;
2023;SDS011;1016;48.770;9.154;2023-05-21T08:35:55;31.60;;;15.17;;
2023;SDS011;1016;48.770;9.154;2023-05-21T08:38:20;30.87;;;15.07;;
2023;SDS011;1016;48.770;9.154;2023-05-21T08:40:46;31.87;;;15.13;;
2023;SDS011;1016;48.770;9.154;2023-05-21T08:43:15;33.60;;;14.63;;
2023;SDS011;1016;48.770;9.154;2023-05-21T08:45:41;31.17;;;14.10;;
2023;SDS011;1016;48.770;9.154;2023-05-21T08:48:11;34.47;;;15.07;;
2023;SDS011;1016;48.770;9.154;2023-05-21T08:50:40;30.20;;;14.00;;
2023;SDS011;1016;48.770;9.154;2023-05-21T08:53:06;31.57;;;14.03;;
2023;SDS011;1016;48.770;9.154;2023-05-21T08:55:32;32.37;;;15.40;;
2023;SDS011;1016;48.770;9.154;2023-05-21T08:57:58;31.70;;;13.83;;
2023;SDS011;1016;48.770;9.154;2023-05-21T09:00:25;30.80;;;13.80;;
2023;SDS011;1016;48.770;9.154;2023-05-21T09:02:50;30.20;;;14.67;;
2023;SDS011;1016;48.770;9.154;2023-05-21T09:05:18;31.03;;;13.93;;
2023;SDS011;1016;48.770;9.154;2023-05-21T09:07:58;32.03;;;13.70;;
2023;SDS011;1016;48.770;9.154;2023-05-21T09:10:38;30.30;;;13.63;;
2023;SDS011;1016;48.770;9.154;2023-05-21T09:13:05;31.80;;;15.03;;
2023;SDS011;1016;48.770;9.154;2023-05-21T09:15:31;30.73;;;14.60;;
2023;SDS011;1016;48.770;9.154;2023-05-21T09:17:57;30.67;;;14.63;;
2023;SDS011;1016;48.770;9.154;2023-05-21T09:20:23;32.00;;;15.30;;
2023;SDS011;1016;48.770;9.154;2023-05-21T09:22:50;30.43;;;13.30;;
2023;SDS011;1016;48.770;9.154;2023-05-21T09:25:19;30.40;;;14.57;;
2023;SDS011;1016;48.770;9.154;2023-05-21T09:27:46;32.20;;;14.40;;
2023;SDS011;1016;48.770;9.154;2023-05-21T09:30:13;30.60;;;13.60;;
2023;SDS011;1016;48.770;9.154;2023-05-21T09:32:40;44.63;;;14.20;;
2023;SDS011;1016;48.770;9.154;2023-05-21T09:35:09;29.97;;;13.50;;
2023;SDS011;1016;48.770;9.154;2023-05-21T09:37:40;31.67;;;13.10;;
2023;SDS011;1016;48.770;9.154;2023-05-21T09:40:14;29.83;;;12.93;;
2023;SDS011;1016;48.770;9.154;2023-05-21T09:42:52;30.50;;;13.00;;
2023;SDS011;1016;48.770;9.154;2023-05-21T09:45:24;28.10;;;11.53;;
2023;SDS011;1016;48.770;9.154;2023-05-21T09:47:52;27.90;;;11.90;;
2023;SDS011;1016;48.770;9.154;2023-05-21T09:50:19;28.80;;;13.03;;
2023;SDS011;1016;48.770;9.154;2023-05-21T09:52:50;28.70;;;12.30;;
2023;SDS011;1016;48.770;9.154;2023-05-21T09:55:22;29.97;;;12.07;;
2023;SDS011;1016;48.770;9.154;2023-05-21T09:57:52;30.23;;;12.00;;
2023;SDS011;1016;48.770;9.154;2023-05-21T10:00:19;29.00;;;11.13;;
2023;SDS011;1016;48.770;9.154;2023-05-21T10:02:46;28.70;;;11.10;;
2023;SDS011;1016;48.770;9.154;2023-05-21T10:05:13;28.90;;;11.57;;
2023;SDS011;1016;48.770;9.154;2023-05-21T10:07:40;28.63;;;11.07;;
2023;SDS011;1016;48.770;9.154;2023-05-21T10:10:13;29.80;;;11.87;;
2023;SDS011;1016;48.770;9.154;2023-05-21T10:12:43;27.27;;;10.93;;
2023;SDS011;1016;48.770;9.154;2023-05-21T10:15:12;26.97;;;10.67;;
2023;SDS011;1016;48.770;9.154;2023-05-21T10:17:40;30.50;;;10.70;;
2023;SDS011;1016;48.770;9.154;2023-05-21T10:20:09;27.63;;;11.00;;
2023;SDS011;1016;48.770;9.154;2023-05-21T10:22:36;26.70;;;10.97;;
2023;SDS011;1016;48.770;9.154;2023-05-21T10:25:02;27.40;;;11.00;;
2023;SDS011;1016;48.770;9.154;2023-05-21T10:27:29;28.30;;;11.93;;
2023;SDS011;1016;48.770;9.154;2023-05-21T10:29:56;28.90;;;11.70;;
2023;SDS011;1016;48.770;9.154;2023-05-21T10:32:23;28.23;;;11.57;;
2023;SDS011;1016;48.770;9.154;2023-05-21T10:34:51;29.30;;;11.77;;
2023;SDS011;1016;48.770;9.154;2023-05-21T10:37:18;29.27;;;11.33;;
2023;SDS011;1016;48.770;9.154;2023-05-21T10:39:47;30.87;;;12.10;;
2023;SDS011;1016;48.770;9.154;2023-05-21T10:47:52;28.43;;;11.30;;
2023;SDS011;1016;48.770;9.154;2023-05-21T10:53:42;28.87;;;11.27;;
2023;SDS011;1016;48.770;9.154;2023-05-21T10:56:29;29.00;;;11.40;;
2023;SDS011;1016;48.770;9.154;2023-05-21T10:59:06;26.40;;;10.93;;
2023;SDS011;1016;48.770;9.154;2023-05-21T11:01:39;27.17;;;11.37;;
2023;SDS011;1016;48.770;9.154;2023-05-21T11:04:05;27.83;;;10.67;;
2023;SDS011;1016;48.770;9.154;2023-05-21T11:06:31;27.47;;;10.70;;
2023;SDS011;1016;48.770;9.154;2023-05-21T11:09:00;26.63;;;10.87;;
2023;SDS011;1016;48.770;9.154;2023-05-21T11:11:38;30.80;;;10.80;;
2023;SDS011;1016;48.770;9.154;2023-05-21T11:14:27;27.07;;;10.23;;
2023;SDS011;1016;48.770;9.154;2023-05-21T11:16:57;29.03;;;11.50;;
2023;SDS011;1016;48.770;9.154;2023-05-21T11:19:31;29.33;;;10.90;;
2023;SDS011;1016;48.770;9.154;2023-05-21T11:22:05;30.10;;;10.27;;
2023;SDS011;1016;48.770;9.154;2023-05-21T11:24:32;28.90;;;10.50;;
2023;SDS011;1016;48.770;9.154;2023-05-21T11:27:02;26.80;;;10.90;;
2023;SDS011;1016;48.770;9.154;2023-05-21T11:29:35;27.17;;;10.60;;
2023;SDS011;1016;48.770;9.154;2023-05-21T11:32:04;27.67;;;10.73;;
2023;SDS011;1016;48.770;9.154;2023-05-21T11:34:42;27.77;;;11.40;;
2023;SDS011;1016;48.770;9.154;2023-05-21T11:39:54;26.73;;;10.33;;
2023;SDS011;1016;48.770;9.154;2023-05-21T11:42:42;26.03;;;10.30;;
2023;SDS011;1016;48.770;9.154;2023-05-21T11:45:08;28.93;;;10.43;;
2023;SDS011;1016;48.770;9.154;2023-05-21T11:47:34;26.00;;;10.73;;
2023;SDS011;1016;48.770;9.154;2023-05-21T11:50:00;29.30;;;11.43;;
2023;SDS011;1016;48.770;9.154;2023-05-21T11:52:27;26.83;;;10.90;;
2023;SDS011;1016;48.770;9.154;2023-05-21T11:54:54;27.20;;;10.50;;
2023;SDS011;1016;48.770;9.154;2023-05-21T11:57:21;26.60;;;10.17;;
2023;SDS011;1016;48.770;9.154;2023-05-21T11:59:50;25.83;;;9.90;;
2023;SDS011;1016;48.770;9.154;2023-05-21T12:02:17;27.00;;;10.40;;
2023;SDS011;1016;48.770;9.154;2023-05-21T12:04:44;25.67;;;9.37;;
2023;SDS011;1016;48.770;9.154;2023-05-21T12:07:12;26.87;;;10.30;;
2023;SDS011;1016;48.770;9.154;2023-05-21T12:09:42;25.73;;;9.90;;
2023;SDS011;1016;48.770;9.154;2023-05-21T12:12:13;27.07;;;10.23;;
2023;SDS011;1016;48.770;9.154;2023-05-21T12:14:43;26.00;;;10.43;;
2023;SDS011;1016;48.770;9.154;2023-05-21T12:17:17;27.23;;;10.60;;
2023;SDS011;1016;48.770;9.154;2023-05-21T12:19:47;27.37;;;9.50;;
2023;SDS011;1016;48.770;9.154;2023-05-21T12:22:13;26.37;;;9.10;;
2023;SDS011;1016;48.770;9.154;2023-05-21T12:24:40;26.47;;;9.60;;
2023;SDS011;1016;48.770;9.154;2023-05-21T12:27:07;26.60;;;9.70;;
2023;SDS011;1016;48.770;9.154;2023-05-21T12:29:37;24.80;;;9.17;;
2023;SDS011;1016;48.770;9.154;2023-05-21T12:32:10;27.30;;;8.80;;
2023;SDS011;1016;48.770;9.154;2023-05-21T12:34:46;26.67;;;9.83;;
2023;SDS011;1016;48.770;9.154;2023-05-21T12:39:50;26.10;;;9.77;;
2023;SDS011;1016;48.770;9.154;2023-05-21T12:42:25;25.40;;;8.77;;
2023;SDS011;1016;48.770;9.154;2023-05-21T12:44:55;26.93;;;9.03;;
2023;SDS011;1016;48.770;9.154;2023-05-21T12:47:22;24.97;;;8.63;;
2023;SDS011;1016;48.770;9.154;2023-05-21T12:49:49;25.87;;;9.70;;
2023;SDS011;1016;48.770;9.154;2023-05-21T12:52:19;25.83;;;8.70;;
2023;SDS011;1016;48.770;9.154;2023-05-21T12:54:47;28.47;;;8.63;;
2023;SDS011;1016;48.770;9.154;2023-05-21T12:57:18;27.60;;;8.60;;
2023;SDS011;1016;48.770;9.154;2023-05-21T12:59:53;25.43;;;9.20;;
2023;SDS011;1016;48.770;9.154;2023-05-21T13:02:25;26.77;;;7.47;;
2023;SDS011;1016;48.770;9.154;2023-05-21T13:04:54;26.10;;;7.47;;
2023;SDS011;1016;48.770;9.154;2023-05-21T13:07:21;25.40;;;9.03;;
2023;SDS011;1016;48.770;9.154;2023-05-21T13:09:47;25.90;;;8.77;;
2023;SDS011;1016;48.770;9.154;2023-05-21T13:12:13;25.47;;;8.67;;
2023;SDS011;1016;48.770;9.154;2023-05-21T13:14:39;27.60;;;9.00;;
2023;SDS011;1016;48.770;9.154;2023-05-21T13:17:05;25.93;;;8.93;;
2023;SDS011;1016;48.770;9.154;2023-05-21T13:19:30;26.67;;;9.00;;
2023;SDS011;1016;48.770;9.154;2023-05-21T13:21:56;27.40;;;9.00;;
2023;SDS011;1016;48.770;9.154;2023-05-21T13:24:21;24.53;;;7.93;;
2023;SDS011;1016;48.770;9.154;2023-05-21T13:26:47;25.93;;;8.77;;
2023;SDS011;1016;48.770;9.154;2023-05-21T13:29:13;26.03;;;9.10;;
2023;SDS011;1016;48.770;9.154;2023-05-21T13:31:39;26.23;;;7.10;;
2023;SDS011;1016;48.770;9.154;2023-05-21T13:34:11;24.95;;;6.75;;
2023;SDS011;1016;48.770;9.154;2023-05-21T13:36:37;24.50;;;6.65;;
2023;SDS011;1016;48.770;9.154;2023-05-21T13:39:03;24.60;;;6.97;;
2023;SDS011;1016;48.770;9.154;2023-05-21T13:41:28;25.10;;;7.90;;
2023;SDS011;1016;48.770;9.154;2023-05-21T13:43:54;23.77;;;6.70;;
2023;SDS011;1016;48.770;9.154;2023-05-21T13:46:20;24.20;;;7.00;;
2023;SDS011;1016;48.770;9.154;2023-05-21T13:48:45;24.67;;;6.50;;
2023;SDS011;1016;48.770;9.154;2023-05-21T13:51:11;24.30;;;6.40;;
2023;SDS011;1016;48.770;9.154;2023-05-21T13:53:36;23.97;;;6.37;;
2023;SDS011;1016;48.770;9.154;2023-05-21T13:56:02;25.23;;;6.80;;
2023;SDS011;1016;48.770;9.154;2023-05-21T13:58:28;23.53;;;6.80;;
2023;SDS011;1016;48.770;9.154;2023-05-21T14:00:58;24.60;;;6.60;;
2023;SDS011;1016;48.770;9.154;2023-05-21T14:03:27;26.25;;;7.30;;
2023;SDS011;1016;48.770;9.154;2023-05-21T14:05:53;24.13;;;6.53;;
2023;SDS011;1016;48.770;9.154;2023-05-21T14:08:19;25.00;;;6.82;;
2023;SDS011;1016;48.770;9.154;2023-05-21T14:10:47;22.98;;;6.28;;
2023;SDS011;1016;48.770;9.154;2023-05-21T14:13:13;24.52;;;6.50;;
2023;SDS011;1016;48.770;9.154;2023-05-21T14:15:39;23.77;;;6.55;;
2023;SDS011;1016;48.770;9.154;2023-05-21T14:18:06;23.75;;;6.20;;
2023;SDS011;1016;48.770;9.154;2023-05-21T14:20:35;23.77;;;6.50;;
2023;SDS011;1016;48.770;9.154;2023-05-21T14:23:04;23.60;;;6.70;;
2023;SDS011;1016;48.770;9.154;2023-05-21T14:25:29;23.40;;;6.60;;
2023;SDS011;1016;48.770;9.154;2023-05-21T14:27:55;24.83;;;6.70;;
2023;SDS011;1016;48.770;9.154;2023-05-21T14:30:20;22.30;;;6.30;;
2023;SDS011;1016;48.770;9.154;2023-05-21T14:32:46;24.07;;;6.63;;
2023;SDS011;1016;48.770;9.154;2023-05-21T14:35:11;23.63;;;6.60;;
2023;SDS011;1016;48.770;9.154;2023-05-21T14:37:37;23.70;;;6.33;;
2023;SDS011;1016;48.770;9.154;2023-05-21T14:40:03;23.27;;;6.32;;
2023;SDS011;1016;48.770;9.154;2023-05-21T14:42:32;23.30;;;6.70;;
2023;SDS011;1016;48.770;9.154;2023-05-21T14:44:58;23.25;;;7.00;;
2023;SDS011;1016;48.770;9.154;2023-05-21T14:47:23;25.45;;;6.97;;
2023;SDS011;1016;48.770;9.154;2023-05-21T14:49:49;23.43;;;6.80;;
2023;SDS011;1016;48.770;9.154;2023-05-21T14:52:14;23.50;;;6.87;;
2023;SDS011;1016;48.770;9.154;2023-05-21T14:54:40;24.70;;;7.28;;
2023;SDS011;1016;48.770;9.154;2023-05-21T14:57:06;24.00;;;7.00;;
2023;SDS011;1016;48.770;9.154;2023-05-21T14:59:31;24.07;;;6.90;;
2023;SDS011;1016;48.770;9.154;2023-05-21T15:01:56;23.83;;;6.50;;
2023;SDS011;1016;48.770;9.154;2023-05-21T15:04:22;23.00;;;6.50;;
2023;SDS011;1016;48.770;9.154;2023-05-21T15:06:48;24.55;;;6.53;;